sensor_id;sensor_type;location;lat;lon;timestamp;P1;durP1;ratioP1;P2;durP2;ratioP2
9848;SDS011;4963;51.444;6.528;2023-12-22T00:00:05;6.00;;;1.93;;
9848;SDS011;4963;51.444;6.528;2023-12-22T00:02:35;7.67;;;1.83;;
9848;SDS011;4963;51.444;6.528;2023-12-22T00:05:02;6.53;;;1.70;;
9848;SDS011;4963;51.444;6.528;2023-12-22T00:07:34;8.23;;;1.40;;
9848;SDS011;4963;51.444;6.528;2023-12-22T00:10:01;8.47;;;1.53;;
9848;SDS011;4963;51.444;6.528;2023-12-22T00:12:28;6.33;;;1.53;;
9848;SDS011;4963;51.444;6.528;2023-12-22T00:14:55;7.03;;;1.63;;
9848;SDS011;4963;51.444;6.528;2023-12-22T00:17:23;6.97;;;1.50;;
9848;SDS011;4963;51.444;6.528;2023-12-22T00:19:53;7.43;;;1.63;;
9848;SDS011;4963;51.444;6.528;2023-12-22T00:22:21;6.97;;;1.70;;
9848;SDS011;4963;51.444;6.528;2023-12-22T00:24:51;6.83;;;2.00;;
9848;SDS011;4963;51.444;6.528;2023-12-22T00:27:23;10.33;;;2.40;;
9848;SDS011;4963;51.444;6.528;2023-12-22T00:29:50;7.87;;;2.30;;
9848;SDS011;4963;51.444;6.528;2023-12-22T00:32:17;7.07;;;1.97;;
9848;SDS011;4963;51.444;6.528;2023-12-22T00:34:48;7.20;;;1.87;;
9848;SDS011;4963;51.444;6.528;2023-12-22T00:37:14;5.60;;;1.43;;
9848;SDS011;4963;51.444;6.528;2023-12-22T00:39:41;5.80;;;1.87;;
9848;SDS011;4963;51.444;6.528;2023-12-22T00:42:11;6.30;;;1.87;;
9848;SDS011;4963;51.444;6.528;2023-12-22T00:44:38;8.43;;;1.90;;
9848;SDS011;4963;51.444;6.528;2023-12-22T00:47:07;6.97;;;1.83;;
9848;SDS011;4963;51.444;6.528;2023-12-22T00:49:33;9.23;;;1.70;;
9848;SDS011;4963;51.444;6.528;2023-12-22T00:52:02;9.77;;;2.80;;
9848;SDS011;4963;51.444;6.528;2023-12-22T00:54:29;6.93;;;1.57;;
9848;SDS011;4963;51.444;6.528;2023-12-22T00:56:56;8.47;;;2.33;;
9848;SDS011;4963;51.444;6.528;2023-12-22T00:59:23;15.47;;;3.63;;
9848;SDS011;4963;51.444;6.528;2023-12-22T01:01:50;11.80;;;2.43;;
9848;SDS011;4963;51.444;6.528;2023-12-22T01:04:19;12.40;;;2.10;;
9848;SDS011;4963;51.444;6.528;2023-12-22T01:06:46;8.03;;;2.20;;
9848;SDS011;4963;51.444;6.528;2023-12-22T01:09:15;6.20;;;1.80;;
9848;SDS011;4963;51.444;6.528;2023-12-22T01:11:42;5.87;;;1.57;;
9848;SDS011;4963;51.444;6.528;2023-12-22T01:14:09;7.03;;;2.47;;
9848;SDS011;4963;51.444;6.528;2023-12-22T01:16:38;7.77;;;1.80;;
9848;SDS011;4963;51.444;6.528;2023-12-22T01:19:06;10.10;;;2.43;;
9848;SDS011;4963;51.444;6.528;2023-12-22T01:21:36;8.17;;;1.90;;
9848;SDS011;4963;51.444;6.528;2023-12-22T01:24:05;6.43;;;1.53;;
9848;SDS011;4963;51.444;6.528;2023-12-22T01:26:33;5.00;;;1.43;;
9848;SDS011;4963;51.444;6.528;2023-12-22T01:29:00;12.50;;;2.23;;
9848;SDS011;4963;51.444;6.528;2023-12-22T01:31:28;10.00;;;2.20;;
9848;SDS011;4963;51.444;6.528;2023-12-22T01:33:55;10.10;;;1.87;;
9848;SDS011;4963;51.444;6.528;2023-12-22T01:36:24;8.37;;;2.17;;
9848;SDS011;4963;51.444;6.528;2023-12-22T01:38:54;8.63;;;2.40;;
9848;SDS011;4963;51.444;6.528;2023-12-22T01:41:21;12.23;;;2.63;;
9848;SDS011;4963;51.444;6.528;2023-12-22T01:43:49;9.43;;;2.20;;
9848;SDS011;4963;51.444;6.528;2023-12-22T01:46:16;8.40;;;2.30;;
9848;SDS011;4963;51.444;6.528;2023-12-22T01:48:44;6.97;;;2.30;;
9848;SDS011;4963;51.444;6.528;2023-12-22T01:51:12;6.73;;;2.07;;
9848;SDS011;4963;51.444;6.528;2023-12-22T01:53:39;7.00;;;1.80;;
9848;SDS011;4963;51.444;6.528;2023-12-22T01:56:06;13.13;;;2.47;;
9848;SDS011;4963;51.444;6.528;2023-12-22T01:58:34;6.23;;;1.77;;
9848;SDS011;4963;51.444;6.528;2023-12-22T02:01:03;7.50;;;1.83;;
9848;SDS011;4963;51.444;6.528;2023-12-22T02:03:31;5.23;;;1.37;;
9848;SDS011;4963;51.444;6.528;2023-12-22T02:05:59;6.67;;;1.57;;
9848;SDS011;4963;51.444;6.528;2023-12-22T02:08:26;4.87;;;1.60;;
9848;SDS011;4963;51.444;6.528;2023-12-22T02:10:58;6.07;;;1.10;;
9848;SDS011;4963;51.444;6.528;2023-12-22T02:13:25;6.80;;;1.80;;
9848;SDS011;4963;51.444;6.528;2023-12-22T02:15:55;5.87;;;1.57;;
9848;SDS011;4963;51.444;6.528;2023-12-22T02:18:33;5.90;;;1.50;;
9848;SDS011;4963;51.444;6.528;2023-12-22T02:21:04;4.13;;;1.17;;
9848;SDS011;4963;51.444;6.528;2023-12-22T02:23:32;5.00;;;1.30;;
9848;SDS011;4963;51.444;6.528;2023-12-22T02:26:02;4.57;;;1.60;;
9848;SDS011;4963;51.444;6.528;2023-12-22T02:28:36;6.90;;;1.40;;
9848;SDS011;4963;51.444;6.528;2023-12-22T02:31:08;6.77;;;1.40;;
9848;SDS011;4963;51.444;6.528;2023-12-22T02:33:39;7.17;;;1.70;;
9848;SDS011;4963;51.444;6.528;2023-12-22T02:36:08;6.77;;;1.43;;
9848;SDS011;4963;51.444;6.528;2023-12-22T02:38:39;5.30;;;1.40;;
9848;SDS011;4963;51.444;6.528;2023-12-22T02:41:09;2.80;;;1.10;;
9848;SDS011;4963;51.444;6.528;2023-12-22T02:43:36;6.50;;;1.50;;
9848;SDS011;4963;51.444;6.528;2023-12-22T02:46:05;4.73;;;1.30;;
9848;SDS011;4963;51.444;6.528;2023-12-22T02:48:39;6.33;;;1.60;;
9848;SDS011;4963;51.444;6.528;2023-12-22T02:51:06;5.43;;;1.50;;
9848;SDS011;4963;51.444;6.528;2023-12-22T02:53:36;5.83;;;1.53;;
9848;SDS011;4963;51.444;6.528;2023-12-22T02:56:04;7.47;;;1.83;;
9848;SDS011;4963;51.444;6.528;2023-12-22T02:58:32;7.60;;;1.33;;
9848;SDS011;4963;51.444;6.528;2023-12-22T03:00:59;9.43;;;1.90;;
9848;SDS011;4963;51.444;6.528;2023-12-22T03:03:25;6.30;;;1.50;;
9848;SDS011;4963;51.444;6.528;2023-12-22T03:05:52;7.23;;;1.83;;
9848;SDS011;4963;51.444;6.528;2023-12-22T03:08:19;5.77;;;1.67;;
9848;SDS011;4963;51.444;6.528;2023-12-22T03:10:46;4.37;;;2.03;;
9848;SDS011;4963;51.444;6.528;2023-12-22T03:13:17;6.10;;;1.77;;
9848;SDS011;4963;51.444;6.528;2023-12-22T03:15:44;4.37;;;1.30;;
9848;SDS011;4963;51.444;6.528;2023-12-22T03:18:12;5.40;;;1.57;;
9848;SDS011;4963;51.444;6.528;2023-12-22T03:20:39;5.83;;;1.60;;
9848;SDS011;4963;51.444;6.528;2023-12-22T03:23:09;7.20;;;1.73;;
9848;SDS011;4963;51.444;6.528;2023-12-22T03:25:36;5.37;;;1.40;;
9848;SDS011;4963;51.444;6.528;2023-12-22T03:28:03;4.87;;;1.60;;
9848;SDS011;4963;51.444;6.528;2023-12-22T03:30:32;5.00;;;1.60;;
9848;SDS011;4963;51.444;6.528;2023-12-22T03:33:03;7.10;;;2.07;;
9848;SDS011;4963;51.444;6.528;2023-12-22T03:35:31;8.47;;;1.53;;
9848;SDS011;4963;51.444;6.528;2023-12-22T03:37:58;8.23;;;1.70;;
9848;SDS011;4963;51.444;6.528;2023-12-22T03:40:25;6.60;;;1.57;;
9848;SDS011;4963;51.444;6.528;2023-12-22T03:42:52;11.67;;;1.80;;
9848;SDS011;4963;51.444;6.528;2023-12-22T03:45:19;4.23;;;1.57;;
9848;SDS011;4963;51.444;6.528;2023-12-22T03:47:47;9.00;;;2.10;;
9848;SDS011;4963;51.444;6.528;2023-12-22T03:50:14;7.67;;;2.00;;
9848;SDS011;4963;51.444;6.528;2023-12-22T03:52:41;9.63;;;2.10;;
9848;SDS011;4963;51.444;6.528;2023-12-22T03:55:08;10.60;;;2.20;;
9848;SDS011;4963;51.444;6.528;2023-12-22T03:57:35;9.80;;;3.07;;
9848;SDS011;4963;51.444;6.528;2023-12-22T04:00:02;12.90;;;2.40;;
9848;SDS011;4963;51.444;6.528;2023-12-22T04:02:29;11.20;;;2.83;;
9848;SDS011;4963;51.444;6.528;2023-12-22T04:04:58;11.53;;;4.07;;
9848;SDS011;4963;51.444;6.528;2023-12-22T04:07:24;14.57;;;2.93;;
9848;SDS011;4963;51.444;6.528;2023-12-22T04:09:53;13.03;;;2.40;;
9848;SDS011;4963;51.444;6.528;2023-12-22T04:12:20;12.67;;;2.60;;
9848;SDS011;4963;51.444;6.528;2023-12-22T04:14:50;11.27;;;2.90;;
9848;SDS011;4963;51.444;6.528;2023-12-22T04:17:18;11.13;;;2.60;;
9848;SDS011;4963;51.444;6.528;2023-12-22T04:19:45;17.63;;;3.37;;
9848;SDS011;4963;51.444;6.528;2023-12-22T04:22:13;14.77;;;2.87;;
9848;SDS011;4963;51.444;6.528;2023-12-22T04:24:40;14.17;;;2.67;;
9848;SDS011;4963;51.444;6.528;2023-12-22T04:27:08;12.47;;;2.73;;
9848;SDS011;4963;51.444;6.528;2023-12-22T04:29:35;13.20;;;2.90;;
9848;SDS011;4963;51.444;6.528;2023-12-22T04:32:02;16.00;;;3.17;;
9848;SDS011;4963;51.444;6.528;2023-12-22T04:34:31;12.77;;;2.80;;
9848;SDS011;4963;51.444;6.528;2023-12-22T04:37:00;17.00;;;3.40;;
9848;SDS011;4963;51.444;6.528;2023-12-22T04:39:29;12.77;;;2.57;;
9848;SDS011;4963;51.444;6.528;2023-12-22T04:41:58;9.77;;;2.40;;
9848;SDS011;4963;51.444;6.528;2023-12-22T04:44:25;12.57;;;3.03;;
9848;SDS011;4963;51.444;6.528;2023-12-22T04:46:52;16.27;;;3.17;;
9848;SDS011;4963;51.444;6.528;2023-12-22T04:49:19;13.57;;;3.07;;
9848;SDS011;4963;51.444;6.528;2023-12-22T04:51:47;12.07;;;2.93;;
9848;SDS011;4963;51.444;6.528;2023-12-22T04:54:14;10.27;;;2.87;;
9848;SDS011;4963;51.444;6.528;2023-12-22T04:56:43;13.57;;;3.00;;
9848;SDS011;4963;51.444;6.528;2023-12-22T04:59:09;10.27;;;2.73;;
9848;SDS011;4963;51.444;6.528;2023-12-22T05:01:38;17.90;;;3.33;;
9848;SDS011;4963;51.444;6.528;2023-12-22T05:04:05;14.20;;;3.10;;
9848;SDS011;4963;51.444;6.528;2023-12-22T05:06:32;13.07;;;3.03;;
9848;SDS011;4963;51.444;6.528;2023-12-22T05:08:59;11.40;;;2.97;;
9848;SDS011;4963;51.444;6.528;2023-12-22T05:11:26;16.60;;;3.63;;
9848;SDS011;4963;51.444;6.528;2023-12-22T05:13:54;14.27;;;3.37;;
9848;SDS011;4963;51.444;6.528;2023-12-22T05:16:21;9.80;;;2.50;;
9848;SDS011;4963;51.444;6.528;2023-12-22T05:18:48;9.30;;;2.73;;
9848;SDS011;4963;51.444;6.528;2023-12-22T05:21:15;11.57;;;3.03;;
9848;SDS011;4963;51.444;6.528;2023-12-22T05:23:42;12.17;;;3.07;;
9848;SDS011;4963;51.444;6.528;2023-12-22T05:26:09;13.90;;;2.80;;
9848;SDS011;4963;51.444;6.528;2023-12-22T05:28:43;8.33;;;2.33;;
9848;SDS011;4963;51.444;6.528;2023-12-22T05:31:15;10.60;;;2.27;;
9848;SDS011;4963;51.444;6.528;2023-12-22T05:33:44;9.20;;;1.97;;
9848;SDS011;4963;51.444;6.528;2023-12-22T05:36:11;9.60;;;2.03;;
9848;SDS011;4963;51.444;6.528;2023-12-22T05:39:16;7.70;;;1.60;;
9848;SDS011;4963;51.444;6.528;2023-12-22T05:41:43;5.43;;;1.63;;
9848;SDS011;4963;51.444;6.528;2023-12-22T05:44:09;9.07;;;2.37;;
9848;SDS011;4963;51.444;6.528;2023-12-22T05:46:40;5.70;;;1.67;;
9848;SDS011;4963;51.444;6.528;2023-12-22T05:49:07;6.37;;;2.07;;
9848;SDS011;4963;51.444;6.528;2023-12-22T05:51:37;7.03;;;1.77;;
9848;SDS011;4963;51.444;6.528;2023-12-22T05:54:04;9.07;;;2.30;;
9848;SDS011;4963;51.444;6.528;2023-12-22T05:56:31;8.10;;;2.37;;
9848;SDS011;4963;51.444;6.528;2023-12-22T05:58:58;12.60;;;2.70;;
9848;SDS011;4963;51.444;6.528;2023-12-22T06:01:26;10.97;;;2.60;;
9848;SDS011;4963;51.444;6.528;2023-12-22T06:03:54;8.03;;;2.37;;
9848;SDS011;4963;51.444;6.528;2023-12-22T06:06:21;12.07;;;2.93;;
9848;SDS011;4963;51.444;6.528;2023-12-22T06:08:48;10.77;;;2.67;;
9848;SDS011;4963;51.444;6.528;2023-12-22T06:11:15;19.97;;;3.10;;
9848;SDS011;4963;51.444;6.528;2023-12-22T06:13:42;14.47;;;2.77;;
9848;SDS011;4963;51.444;6.528;2023-12-22T06:16:10;12.27;;;3.10;;
9848;SDS011;4963;51.444;6.528;2023-12-22T06:18:40;14.03;;;3.23;;
9848;SDS011;4963;51.444;6.528;2023-12-22T06:21:09;16.77;;;3.13;;
9848;SDS011;4963;51.444;6.528;2023-12-22T06:23:36;14.10;;;2.47;;
9848;SDS011;4963;51.444;6.528;2023-12-22T06:26:12;11.57;;;3.07;;
9848;SDS011;4963;51.444;6.528;2023-12-22T06:28:39;12.00;;;2.90;;
9848;SDS011;4963;51.444;6.528;2023-12-22T06:31:06;15.23;;;2.90;;
9848;SDS011;4963;51.444;6.528;2023-12-22T06:33:33;17.83;;;3.73;;
9848;SDS011;4963;51.444;6.528;2023-12-22T06:36:00;11.00;;;2.87;;
9848;SDS011;4963;51.444;6.528;2023-12-22T06:38:28;13.67;;;3.33;;
9848;SDS011;4963;51.444;6.528;2023-12-22T06:40:56;12.57;;;2.57;;
9848;SDS011;4963;51.444;6.528;2023-12-22T06:43:23;12.97;;;2.83;;
9848;SDS011;4963;51.444;6.528;2023-12-22T06:45:50;8.70;;;2.23;;
9848;SDS011;4963;51.444;6.528;2023-12-22T06:48:23;9.03;;;2.60;;
9848;SDS011;4963;51.444;6.528;2023-12-22T06:50:51;10.63;;;3.00;;
9848;SDS011;4963;51.444;6.528;2023-12-22T06:53:18;15.10;;;2.83;;
9848;SDS011;4963;51.444;6.528;2023-12-22T06:55:46;12.40;;;2.80;;
9848;SDS011;4963;51.444;6.528;2023-12-22T06:58:13;13.23;;;2.83;;
9848;SDS011;4963;51.444;6.528;2023-12-22T07:00:40;9.47;;;2.00;;
9848;SDS011;4963;51.444;6.528;2023-12-22T07:03:07;13.83;;;2.40;;
9848;SDS011;4963;51.444;6.528;2023-12-22T07:05:34;14.67;;;5.33;;
9848;SDS011;4963;51.444;6.528;2023-12-22T07:08:07;32.33;;;15.13;;
9848;SDS011;4963;51.444;6.528;2023-12-22T07:10:34;16.07;;;8.43;;
9848;SDS011;4963;51.444;6.528;2023-12-22T07:13:02;13.13;;;3.00;;
9848;SDS011;4963;51.444;6.528;2023-12-22T07:15:31;15.93;;;5.70;;
9848;SDS011;4963;51.444;6.528;2023-12-22T07:17:58;14.10;;;3.50;;
9848;SDS011;4963;51.444;6.528;2023-12-22T07:20:26;13.27;;;3.43;;
9848;SDS011;4963;51.444;6.528;2023-12-22T07:22:53;12.40;;;3.27;;
9848;SDS011;4963;51.444;6.528;2023-12-22T07:25:21;12.43;;;3.20;;
9848;SDS011;4963;51.444;6.528;2023-12-22T07:27:48;18.77;;;7.47;;
9848;SDS011;4963;51.444;6.528;2023-12-22T07:30:16;22.03;;;5.90;;
9848;SDS011;4963;51.444;6.528;2023-12-22T07:32:43;13.60;;;3.30;;
9848;SDS011;4963;51.444;6.528;2023-12-22T07:35:17;17.00;;;3.60;;
9848;SDS011;4963;51.444;6.528;2023-12-22T07:37:44;16.70;;;4.30;;
9848;SDS011;4963;51.444;6.528;2023-12-22T07:40:11;15.03;;;4.23;;
9848;SDS011;4963;51.444;6.528;2023-12-22T07:42:38;15.87;;;4.17;;
9848;SDS011;4963;51.444;6.528;2023-12-22T07:45:05;10.70;;;3.93;;
9848;SDS011;4963;51.444;6.528;2023-12-22T07:47:34;17.33;;;3.40;;
9848;SDS011;4963;51.444;6.528;2023-12-22T07:50:02;22.60;;;4.63;;
9848;SDS011;4963;51.444;6.528;2023-12-22T07:52:33;17.17;;;4.40;;
9848;SDS011;4963;51.444;6.528;2023-12-22T07:55:03;21.90;;;5.27;;
9848;SDS011;4963;51.444;6.528;2023-12-22T07:57:31;16.87;;;4.20;;
9848;SDS011;4963;51.444;6.528;2023-12-22T07:59:58;16.13;;;5.23;;
9848;SDS011;4963;51.444;6.528;2023-12-22T08:02:24;25.67;;;7.90;;
9848;SDS011;4963;51.444;6.528;2023-12-22T08:04:53;19.27;;;5.43;;
9848;SDS011;4963;51.444;6.528;2023-12-22T08:07:22;16.77;;;6.27;;
9848;SDS011;4963;51.444;6.528;2023-12-22T08:09:49;23.40;;;6.23;;
9848;SDS011;4963;51.444;6.528;2023-12-22T08:12:15;22.73;;;5.70;;
9848;SDS011;4963;51.444;6.528;2023-12-22T08:14:42;14.93;;;5.03;;
9848;SDS011;4963;51.444;6.528;2023-12-22T08:17:09;15.63;;;5.53;;
9848;SDS011;4963;51.444;6.528;2023-12-22T08:19:38;26.93;;;6.37;;
9848;SDS011;4963;51.444;6.528;2023-12-22T08:22:09;24.53;;;6.47;;
9848;SDS011;4963;51.444;6.528;2023-12-22T08:24:35;33.00;;;8.60;;
9848;SDS011;4963;51.444;6.528;2023-12-22T08:27:03;24.40;;;6.97;;
9848;SDS011;4963;51.444;6.528;2023-12-22T08:29:31;27.33;;;7.20;;
9848;SDS011;4963;51.444;6.528;2023-12-22T08:31:58;24.27;;;6.50;;
9848;SDS011;4963;51.444;6.528;2023-12-22T08:34:25;32.57;;;8.43;;
9848;SDS011;4963;51.444;6.528;2023-12-22T08:36:52;27.40;;;7.03;;
9848;SDS011;4963;51.444;6.528;2023-12-22T08:39:20;26.07;;;6.03;;
9848;SDS011;4963;51.444;6.528;2023-12-22T08:41:49;35.63;;;6.43;;
9848;SDS011;4963;51.444;6.528;2023-12-22T08:44:16;22.43;;;6.43;;
9848;SDS011;4963;51.444;6.528;2023-12-22T08:46:43;27.50;;;7.00;;
9848;SDS011;4963;51.444;6.528;2023-12-22T08:49:10;31.00;;;6.83;;
9848;SDS011;4963;51.444;6.528;2023-12-22T08:51:36;34.97;;;7.30;;
9848;SDS011;4963;51.444;6.528;2023-12-22T08:54:03;27.00;;;6.47;;
9848;SDS011;4963;51.444;6.528;2023-12-22T08:56:31;24.93;;;7.87;;
9848;SDS011;4963;51.444;6.528;2023-12-22T08:59:00;28.77;;;5.80;;
9848;SDS011;4963;51.444;6.528;2023-12-22T09:01:27;28.40;;;5.73;;
9848;SDS011;4963;51.444;6.528;2023-12-22T09:03:54;31.40;;;7.50;;
9848;SDS011;4963;51.444;6.528;2023-12-22T09:06:21;27.13;;;5.87;;
9848;SDS011;4963;51.444;6.528;2023-12-22T09:08:49;22.17;;;6.50;;
9848;SDS011;4963;51.444;6.528;2023-12-22T09:11:18;26.40;;;5.60;;
9848;SDS011;4963;51.444;6.528;2023-12-22T09:13:46;20.87;;;5.07;;
9848;SDS011;4963;51.444;6.528;2023-12-22T09:16:13;29.37;;;6.33;;
9848;SDS011;4963;51.444;6.528;2023-12-22T09:18:46;23.67;;;7.37;;
9848;SDS011;4963;51.444;6.528;2023-12-22T09:21:13;22.50;;;5.90;;
9848;SDS011;4963;51.444;6.528;2023-12-22T09:23:40;19.47;;;5.40;;
9848;SDS011;4963;51.444;6.528;2023-12-22T09:26:09;23.60;;;6.03;;
9848;SDS011;4963;51.444;6.528;2023-12-22T09:28:36;25.17;;;4.87;;
9848;SDS011;4963;51.444;6.528;2023-12-22T09:31:04;18.57;;;4.90;;
9848;SDS011;4963;51.444;6.528;2023-12-22T09:33:32;23.17;;;6.13;;
9848;SDS011;4963;51.444;6.528;2023-12-22T09:36:01;21.37;;;5.43;;
9848;SDS011;4963;51.444;6.528;2023-12-22T09:38:30;17.53;;;4.80;;
9848;SDS011;4963;51.444;6.528;2023-12-22T09:40:57;26.63;;;6.07;;
9848;SDS011;4963;51.444;6.528;2023-12-22T09:43:25;17.77;;;4.50;;
9848;SDS011;4963;51.444;6.528;2023-12-22T09:45:52;14.33;;;5.37;;
9848;SDS011;4963;51.444;6.528;2023-12-22T09:55:04;14.83;;;3.57;;
9848;SDS011;4963;51.444;6.528;2023-12-22T09:57:35;15.33;;;3.93;;
9848;SDS011;4963;51.444;6.528;2023-12-22T10:00:03;16.87;;;4.27;;
9848;SDS011;4963;51.444;6.528;2023-12-22T10:02:32;14.47;;;3.90;;
9848;SDS011;4963;51.444;6.528;2023-12-22T10:05:00;13.23;;;3.70;;
9848;SDS011;4963;51.444;6.528;2023-12-22T10:07:27;14.80;;;3.40;;
9848;SDS011;4963;51.444;6.528;2023-12-22T10:09:58;11.53;;;3.77;;
9848;SDS011;4963;51.444;6.528;2023-12-22T10:12:29;13.50;;;3.70;;
9848;SDS011;4963;51.444;6.528;2023-12-22T10:14:56;13.57;;;4.00;;
9848;SDS011;4963;51.444;6.528;2023-12-22T10:17:25;11.93;;;3.90;;
9848;SDS011;4963;51.444;6.528;2023-12-22T10:19:52;11.50;;;3.17;;
9848;SDS011;4963;51.444;6.528;2023-12-22T10:22:19;12.97;;;3.30;;
9848;SDS011;4963;51.444;6.528;2023-12-22T10:24:49;13.63;;;3.30;;
9848;SDS011;4963;51.444;6.528;2023-12-22T10:27:17;9.53;;;2.90;;
9848;SDS011;4963;51.444;6.528;2023-12-22T10:29:49;7.50;;;2.17;;
9848;SDS011;4963;51.444;6.528;2023-12-22T10:32:16;8.53;;;2.63;;
9848;SDS011;4963;51.444;6.528;2023-12-22T10:34:43;11.07;;;3.07;;
9848;SDS011;4963;51.444;6.528;2023-12-22T10:37:10;7.87;;;2.50;;
9848;SDS011;4963;51.444;6.528;2023-12-22T10:39:38;12.83;;;3.13;;
9848;SDS011;4963;51.444;6.528;2023-12-22T10:42:05;8.57;;;3.20;;
9848;SDS011;4963;51.444;6.528;2023-12-22T10:44:32;7.87;;;2.40;;
9848;SDS011;4963;51.444;6.528;2023-12-22T10:47:07;9.57;;;2.63;;
9848;SDS011;4963;51.444;6.528;2023-12-22T10:49:34;11.47;;;3.03;;
9848;SDS011;4963;51.444;6.528;2023-12-22T10:52:03;11.73;;;2.93;;
9848;SDS011;4963;51.444;6.528;2023-12-22T10:54:30;7.07;;;2.20;;
9848;SDS011;4963;51.444;6.528;2023-12-22T10:56:57;4.90;;;2.07;;
9848;SDS011;4963;51.444;6.528;2023-12-22T10:59:27;4.67;;;2.50;;
9848;SDS011;4963;51.444;6.528;2023-12-22T11:01:56;7.90;;;2.20;;
9848;SDS011;4963;51.444;6.528;2023-12-22T11:04:29;10.10;;;2.17;;
9848;SDS011;4963;51.444;6.528;2023-12-22T11:06:58;9.07;;;3.33;;
9848;SDS011;4963;51.444;6.528;2023-12-22T11:09:28;6.10;;;1.90;;
9848;SDS011;4963;51.444;6.528;2023-12-22T11:11:57;6.07;;;1.80;;
9848;SDS011;4963;51.444;6.528;2023-12-22T11:14:26;3.53;;;2.17;;
9848;SDS011;4963;51.444;6.528;2023-12-22T11:16:55;4.80;;;1.70;;
9848;SDS011;4963;51.444;6.528;2023-12-22T11:19:23;3.80;;;1.80;;
9848;SDS011;4963;51.444;6.528;2023-12-22T11:21:55;5.03;;;1.60;;
9848;SDS011;4963;51.444;6.528;2023-12-22T11:24:24;4.00;;;1.87;;
9848;SDS011;4963;51.444;6.528;2023-12-22T11:26:54;8.80;;;1.87;;
9848;SDS011;4963;51.444;6.528;2023-12-22T11:29:23;9.63;;;2.13;;
9848;SDS011;4963;51.444;6.528;2023-12-22T11:31:52;4.60;;;1.53;;
9848;SDS011;4963;51.444;6.528;2023-12-22T11:34:21;5.00;;;1.90;;
9848;SDS011;4963;51.444;6.528;2023-12-22T11:36:51;3.87;;;1.77;;
9848;SDS011;4963;51.444;6.528;2023-12-22T11:39:20;7.23;;;1.60;;
9848;SDS011;4963;51.444;6.528;2023-12-22T11:41:47;4.70;;;1.67;;
9848;SDS011;4963;51.444;6.528;2023-12-22T11:44:17;3.70;;;1.50;;
9848;SDS011;4963;51.444;6.528;2023-12-22T11:46:44;6.37;;;1.90;;
9848;SDS011;4963;51.444;6.528;2023-12-22T11:52:36;2.60;;;1.80;;
9848;SDS011;4963;51.444;6.528;2023-12-22T11:55:04;4.87;;;1.50;;
9848;SDS011;4963;51.444;6.528;2023-12-22T11:57:32;6.77;;;1.50;;
9848;SDS011;4963;51.444;6.528;2023-12-22T12:00:02;5.23;;;1.63;;
9848;SDS011;4963;51.444;6.528;2023-12-22T12:02:32;3.83;;;1.93;;
9848;SDS011;4963;51.444;6.528;2023-12-22T12:05:00;6.83;;;1.93;;
9848;SDS011;4963;51.444;6.528;2023-12-22T12:07:39;4.30;;;1.67;;
9848;SDS011;4963;51.444;6.528;2023-12-22T12:10:09;5.37;;;1.80;;
9848;SDS011;4963;51.444;6.528;2023-12-22T12:12:38;6.27;;;2.07;;
9848;SDS011;4963;51.444;6.528;2023-12-22T12:15:08;9.00;;;2.20;;
9848;SDS011;4963;51.444;6.528;2023-12-22T12:17:40;4.93;;;1.60;;
9848;SDS011;4963;51.444;6.528;2023-12-22T12:20:08;6.33;;;1.83;;
9848;SDS011;4963;51.444;6.528;2023-12-22T12:22:38;5.27;;;1.73;;
9848;SDS011;4963;51.444;6.528;2023-12-22T12:25:09;6.50;;;1.90;;
9848;SDS011;4963;51.444;6.528;2023-12-22T12:27:37;3.27;;;1.73;;
9848;SDS011;4963;51.444;6.528;2023-12-22T12:30:11;6.90;;;2.00;;
9848;SDS011;4963;51.444;6.528;2023-12-22T12:32:40;5.10;;;1.70;;
9848;SDS011;4963;51.444;6.528;2023-12-22T12:35:10;7.00;;;2.07;;
9848;SDS011;4963;51.444;6.528;2023-12-22T12:37:39;5.27;;;1.83;;
9848;SDS011;4963;51.444;6.528;2023-12-22T12:40:07;4.60;;;1.87;;
9848;SDS011;4963;51.444;6.528;2023-12-22T12:42:37;5.30;;;1.80;;
9848;SDS011;4963;51.444;6.528;2023-12-22T12:45:04;4.03;;;1.57;;
9848;SDS011;4963;51.444;6.528;2023-12-22T12:50:10;5.57;;;2.23;;
9848;SDS011;4963;51.444;6.528;2023-12-22T12:52:38;9.50;;;1.63;;
9848;SDS011;4963;51.444;6.528;2023-12-22T12:55:06;4.40;;;1.90;;
9848;SDS011;4963;51.444;6.528;2023-12-22T12:57:36;4.80;;;2.20;;
9848;SDS011;4963;51.444;6.528;2023-12-22T13:00:05;2.00;;;1.30;;
9848;SDS011;4963;51.444;6.528;2023-12-22T13:02:35;4.20;;;1.83;;
9848;SDS011;4963;51.444;6.528;2023-12-22T13:05:07;5.90;;;2.00;;
9848;SDS011;4963;51.444;6.528;2023-12-22T13:07:36;5.63;;;2.33;;
9848;SDS011;4963;51.444;6.528;2023-12-22T13:10:04;6.77;;;1.90;;
9848;SDS011;4963;51.444;6.528;2023-12-22T13:12:32;4.70;;;1.77;;
9848;SDS011;4963;51.444;6.528;2023-12-22T13:15:01;4.33;;;1.50;;
9848;SDS011;4963;51.444;6.528;2023-12-22T13:17:29;4.70;;;2.27;;
9848;SDS011;4963;51.444;6.528;2023-12-22T13:19:56;6.97;;;2.07;;
9848;SDS011;4963;51.444;6.528;2023-12-22T13:22:23;7.13;;;1.90;;
9848;SDS011;4963;51.444;6.528;2023-12-22T13:24:56;5.93;;;2.53;;
9848;SDS011;4963;51.444;6.528;2023-12-22T13:27:25;5.27;;;2.30;;
9848;SDS011;4963;51.444;6.528;2023-12-22T13:29:55;5.40;;;1.80;;
9848;SDS011;4963;51.444;6.528;2023-12-22T13:32:22;5.53;;;1.97;;
9848;SDS011;4963;51.444;6.528;2023-12-22T13:34:50;5.90;;;1.73;;
9848;SDS011;4963;51.444;6.528;2023-12-22T13:37:17;7.43;;;2.80;;
9848;SDS011;4963;51.444;6.528;2023-12-22T13:39:45;5.27;;;2.00;;
9848;SDS011;4963;51.444;6.528;2023-12-22T13:42:15;6.03;;;2.30;;
9848;SDS011;4963;51.444;6.528;2023-12-22T13:44:48;6.20;;;2.27;;
9848;SDS011;4963;51.444;6.528;2023-12-22T13:47:17;8.70;;;2.20;;
9848;SDS011;4963;51.444;6.528;2023-12-22T13:49:44;5.70;;;2.10;;
9848;SDS011;4963;51.444;6.528;2023-12-22T13:52:24;9.27;;;2.03;;
9848;SDS011;4963;51.444;6.528;2023-12-22T13:54:52;6.00;;;2.10;;
9848;SDS011;4963;51.444;6.528;2023-12-22T13:57:21;5.97;;;2.23;;
9848;SDS011;4963;51.444;6.528;2023-12-22T13:59:50;8.70;;;1.93;;
9848;SDS011;4963;51.444;6.528;2023-12-22T14:02:21;3.67;;;1.83;;
9848;SDS011;4963;51.444;6.528;2023-12-22T14:04:48;6.20;;;1.80;;
9848;SDS011;4963;51.444;6.528;2023-12-22T14:07:16;6.17;;;2.40;;
9848;SDS011;4963;51.444;6.528;2023-12-22T14:09:43;5.17;;;1.57;;
9848;SDS011;4963;51.444;6.528;2023-12-22T14:12:10;5.53;;;1.80;;
9848;SDS011;4963;51.444;6.528;2023-12-22T14:14:36;8.03;;;1.70;;
9848;SDS011;4963;51.444;6.528;2023-12-22T14:17:05;5.43;;;1.83;;
9848;SDS011;4963;51.444;6.528;2023-12-22T14:19:31;4.93;;;1.63;;
9848;SDS011;4963;51.444;6.528;2023-12-22T14:21:58;5.80;;;2.03;;
9848;SDS011;4963;51.444;6.528;2023-12-22T14:24:28;6.70;;;1.93;;
9848;SDS011;4963;51.444;6.528;2023-12-22T14:26:57;5.97;;;2.43;;
9848;SDS011;4963;51.444;6.528;2023-12-22T14:29:24;8.23;;;2.00;;
9848;SDS011;4963;51.444;6.528;2023-12-22T14:31:51;4.57;;;1.87;;
9848;SDS011;4963;51.444;6.528;2023-12-22T14:34:19;9.23;;;2.10;;
9848;SDS011;4963;51.444;6.528;2023-12-22T14:36:47;5.70;;;2.27;;
9848;SDS011;4963;51.444;6.528;2023-12-22T14:39:14;8.90;;;2.37;;
9848;SDS011;4963;51.444;6.528;2023-12-22T14:41:41;6.60;;;2.30;;
9848;SDS011;4963;51.444;6.528;2023-12-22T14:44:08;7.13;;;1.90;;
9848;SDS011;4963;51.444;6.528;2023-12-22T14:46:39;10.63;;;2.13;;
9848;SDS011;4963;51.444;6.528;2023-12-22T14:49:06;6.70;;;2.43;;
9848;SDS011;4963;51.444;6.528;2023-12-22T14:51:37;6.83;;;1.90;;
9848;SDS011;4963;51.444;6.528;2023-12-22T14:54:05;4.40;;;1.67;;
9848;SDS011;4963;51.444;6.528;2023-12-22T14:56:33;5.47;;;2.17;;
9848;SDS011;4963;51.444;6.528;2023-12-22T14:59:00;3.97;;;1.70;;
9848;SDS011;4963;51.444;6.528;2023-12-22T15:01:27;8.90;;;2.10;;
9848;SDS011;4963;51.444;6.528;2023-12-22T15:03:54;5.20;;;2.07;;
9848;SDS011;4963;51.444;6.528;2023-12-22T15:06:21;6.73;;;2.00;;
9848;SDS011;4963;51.444;6.528;2023-12-22T15:08:49;6.43;;;2.03;;
9848;SDS011;4963;51.444;6.528;2023-12-22T15:11:17;5.93;;;2.13;;
9848;SDS011;4963;51.444;6.528;2023-12-22T15:13:44;5.63;;;2.00;;
9848;SDS011;4963;51.444;6.528;2023-12-22T15:16:10;8.47;;;2.10;;
9848;SDS011;4963;51.444;6.528;2023-12-22T15:18:37;5.83;;;1.90;;
9848;SDS011;4963;51.444;6.528;2023-12-22T15:21:04;6.60;;;2.50;;
9848;SDS011;4963;51.444;6.528;2023-12-22T15:23:31;9.17;;;2.60;;
9848;SDS011;4963;51.444;6.528;2023-12-22T15:26:01;8.90;;;2.63;;
9848;SDS011;4963;51.444;6.528;2023-12-22T15:28:28;6.93;;;2.33;;